sensor_id;sensor_type;location;lat;lon;timestamp;P1;durP1;ratioP1;P2;durP2;ratioP2
41925;SDS011;27615;51.826;5.692;2022-12-31T07:07:11;6.30;;;2.10;;
41925;SDS011;27615;51.826;5.692;2022-12-31T07:10:05;2.50;;;1.90;;
41925;SDS011;27615;51.826;5.692;2022-12-31T07:12:57;2.40;;;1.73;;
41925;SDS011;27615;51.826;5.692;2022-12-31T07:21:09;2.60;;;1.08;;
41925;SDS011;27615;51.826;5.692;2022-12-31T07:23:38;5.00;;;1.77;;
41925;SDS011;27615;51.826;5.692;2022-12-31T07:26:14;2.53;;;1.13;;
41925;SDS011;27615;51.826;5.692;2022-12-31T07:31:54;1.73;;;0.68;;
41925;SDS011;27615;51.826;5.692;2022-12-31T07:37:21;2.38;;;0.55;;
41925;SDS011;27615;51.826;5.692;2022-12-31T07:42:36;3.50;;;0.50;;
41925;SDS011;27615;51.826;5.692;2022-12-31T07:45:11;2.42;;;0.50;;
41925;SDS011;27615;51.826;5.692;2022-12-31T07:47:43;2.28;;;0.30;;
41925;SDS011;27615;51.826;5.692;2022-12-31T07:50:16;1.17;;;0.30;;
41925;SDS011;27615;51.826;5.692;2022-12-31T07:52:42;0.70;;;0.30;;
41925;SDS011;27615;51.826;5.692;2022-12-31T07:55:08;2.85;;;0.60;;
41925;SDS011;27615;51.826;5.692;2022-12-31T07:57:36;2.35;;;0.60;;
41925;SDS011;27615;51.826;5.692;2022-12-31T08:00:07;4.53;;;1.05;;
41925;SDS011;27615;51.826;5.692;2022-12-31T08:02:52;2.72;;;0.57;;
41925;SDS011;27615;51.826;5.692;2022-12-31T08:05:43;1.83;;;0.60;;
41925;SDS011;27615;51.826;5.692;2022-12-31T08:14:07;1.73;;;0.50;;
41925;SDS011;27615;51.826;5.692;2022-12-31T08:16:35;3.22;;;0.68;;
41925;SDS011;27615;51.826;5.692;2022-12-31T08:19:01;4.35;;;0.70;;
41925;SDS011;27615;51.826;5.692;2022-12-31T08:21:40;1.52;;;0.50;;
41925;SDS011;27615;51.826;5.692;2022-12-31T08:30:02;4.03;;;0.50;;
41925;SDS011;27615;51.826;5.692;2022-12-31T08:46:37;2.10;;;0.28;;
41925;SDS011;27615;51.826;5.692;2022-12-31T08:49:11;0.60;;;0.20;;
41925;SDS011;27615;51.826;5.692;2022-12-31T08:51:38;1.30;;;0.20;;
41925;SDS011;27615;51.826;5.692;2022-12-31T08:54:05;1.42;;;0.30;;
41925;SDS011;27615;51.826;5.692;2022-12-31T08:57:16;3.40;;;0.40;;
41925;SDS011;27615;51.826;5.692;2022-12-31T09:13:21;3.53;;;0.70;;
41925;SDS011;27615;51.826;5.692;2022-12-31T09:15:58;2.05;;;0.65;;
41925;SDS011;27615;51.826;5.692;2022-12-31T09:18:30;2.90;;;0.60;;
41925;SDS011;27615;51.826;5.692;2022-12-31T09:21:02;1.73;;;0.60;;
41925;SDS011;27615;51.826;5.692;2022-12-31T09:23:27;3.03;;;0.60;;
41925;SDS011;27615;51.826;5.692;2022-12-31T09:25:59;3.22;;;0.50;;
41925;SDS011;27615;51.826;5.692;2022-12-31T09:28:50;4.38;;;0.55;;
41925;SDS011;27615;51.826;5.692;2022-12-31T09:34:05;3.17;;;0.75;;
41925;SDS011;27615;51.826;5.692;2022-12-31T09:36:43;3.53;;;0.68;;
41925;SDS011;27615;51.826;5.692;2022-12-31T09:39:15;2.13;;;0.60;;
41925;SDS011;27615;51.826;5.692;2022-12-31T09:47:40;6.05;;;0.57;;
41925;SDS011;27615;51.826;5.692;2022-12-31T09:58:22;4.05;;;0.60;;
41925;SDS011;27615;51.826;5.692;2022-12-31T10:15:34;3.13;;;0.70;;
41925;SDS011;27615;51.826;5.692;2022-12-31T10:18:28;5.15;;;1.15;;
41925;SDS011;27615;51.826;5.692;2022-12-31T10:21:46;1.65;;;0.50;;
41925;SDS011;27615;51.826;5.692;2022-12-31T10:32:31;5.18;;;0.98;;
41925;SDS011;27615;51.826;5.692;2022-12-31T10:35:12;3.40;;;0.60;;
41925;SDS011;27615;51.826;5.692;2022-12-31T10:37:44;3.08;;;0.70;;
41925;SDS011;27615;51.826;5.692;2022-12-31T10:48:36;3.72;;;0.68;;
41925;SDS011;27615;51.826;5.692;2022-12-31T10:54:23;3.58;;;0.65;;
41925;SDS011;27615;51.826;5.692;2022-12-31T11:08:37;5.10;;;1.10;;
41925;SDS011;27615;51.826;5.692;2022-12-31T11:16:48;7.00;;;1.00;;
41925;SDS011;27615;51.826;5.692;2022-12-31T11:19:53;5.68;;;1.35;;
41925;SDS011;27615;51.826;5.692;2022-12-31T11:39:48;3.67;;;0.80;;
41925;SDS011;27615;51.826;5.692;2022-12-31T11:47:49;3.10;;;0.85;;
41925;SDS011;27615;51.826;5.692;2022-12-31T11:50:48;2.97;;;0.57;;
41925;SDS011;27615;51.826;5.692;2022-12-31T11:58:35;5.00;;;1.00;;
41925;SDS011;27615;51.826;5.692;2022-12-31T12:01:21;3.60;;;0.77;;
41925;SDS011;27615;51.826;5.692;2022-12-31T12:03:54;3.08;;;0.70;;
41925;SDS011;27615;51.826;5.692;2022-12-31T12:06:23;4.47;;;0.88;;
41925;SDS011;27615;51.826;5.692;2022-12-31T12:08:57;4.30;;;0.68;;
41925;SDS011;27615;51.826;5.692;2022-12-31T12:11:26;4.00;;;0.80;;
41925;SDS011;27615;51.826;5.692;2022-12-31T12:13:55;4.40;;;0.82;;
41925;SDS011;27615;51.826;5.692;2022-12-31T12:16:21;5.00;;;1.25;;
41925;SDS011;27615;51.826;5.692;2022-12-31T12:18:50;6.45;;;1.52;;
41925;SDS011;27615;51.826;5.692;2022-12-31T12:21:27;4.25;;;0.95;;
41925;SDS011;27615;51.826;5.692;2022-12-31T12:23:55;5.55;;;1.15;;
41925;SDS011;27615;51.826;5.692;2022-12-31T12:28:52;7.40;;;1.58;;
41925;SDS011;27615;51.826;5.692;2022-12-31T12:31:19;5.20;;;1.55;;
41925;SDS011;27615;51.826;5.692;2022-12-31T12:33:47;6.63;;;1.05;;
41925;SDS011;27615;51.826;5.692;2022-12-31T12:36:14;5.05;;;0.82;;
41925;SDS011;27615;51.826;5.692;2022-12-31T12:38:42;4.25;;;0.90;;
41925;SDS011;27615;51.826;5.692;2022-12-31T12:41:21;5.68;;;1.13;;
41925;SDS011;27615;51.826;5.692;2022-12-31T12:44:00;4.22;;;0.85;;
41925;SDS011;27615;51.826;5.692;2022-12-31T12:46:35;5.07;;;1.17;;
41925;SDS011;27615;51.826;5.692;2022-12-31T12:49:20;6.15;;;1.20;;
41925;SDS011;27615;51.826;5.692;2022-12-31T12:54:50;3.90;;;1.10;;
41925;SDS011;27615;51.826;5.692;2022-12-31T13:00:21;4.13;;;1.23;;
41925;SDS011;27615;51.826;5.692;2022-12-31T13:03:00;4.90;;;1.00;;
41925;SDS011;27615;51.826;5.692;2022-12-31T13:05:47;2.45;;;0.90;;
41925;SDS011;27615;51.826;5.692;2022-12-31T13:14:26;4.38;;;0.70;;
41925;SDS011;27615;51.826;5.692;2022-12-31T13:23:08;5.93;;;0.88;;
41925;SDS011;27615;51.826;5.692;2022-12-31T13:26:30;5.57;;;0.80;;
41925;SDS011;27615;51.826;5.692;2022-12-31T13:28:45;5.10;;;1.40;;
41925;SDS011;27615;51.826;5.692;2022-12-31T13:31:17;5.20;;;0.82;;
41925;SDS011;27615;51.826;5.692;2022-12-31T13:33:49;5.00;;;1.00;;
41925;SDS011;27615;51.826;5.692;2022-12-31T13:36:20;5.82;;;0.95;;
41925;SDS011;27615;51.826;5.692;2022-12-31T13:38:52;4.63;;;0.90;;
41925;SDS011;27615;51.826;5.692;2022-12-31T13:41:20;3.72;;;1.10;;
41925;SDS011;27615;51.826;5.692;2022-12-31T13:49:28;4.93;;;1.08;;
41925;SDS011;27615;51.826;5.692;2022-12-31T13:51:59;5.75;;;1.10;;
41925;SDS011;27615;51.826;5.692;2022-12-31T13:54:50;4.90;;;1.02;;
41925;SDS011;27615;51.826;5.692;2022-12-31T13:57:27;4.72;;;1.30;;
41925;SDS011;27615;51.826;5.692;2022-12-31T13:59:59;8.30;;;1.15;;
41925;SDS011;27615;51.826;5.692;2022-12-31T14:05:24;6.38;;;1.13;;
41925;SDS011;27615;51.826;5.692;2022-12-31T14:07:59;4.35;;;1.00;;
41925;SDS011;27615;51.826;5.692;2022-12-31T14:21:58;3.65;;;1.00;;
41925;SDS011;27615;51.826;5.692;2022-12-31T14:24:42;2.90;;;0.90;;
41925;SDS011;27615;51.826;5.692;2022-12-31T14:27:20;5.95;;;1.15;;
41925;SDS011;27615;51.826;5.692;2022-12-31T14:29:59;6.82;;;1.42;;
41925;SDS011;27615;51.826;5.692;2022-12-31T14:32:51;4.93;;;1.02;;
41925;SDS011;27615;51.826;5.692;2022-12-31T14:41:42;7.18;;;1.77;;
41925;SDS011;27615;51.826;5.692;2022-12-31T14:50:11;6.05;;;1.63;;
41925;SDS011;27615;51.826;5.692;2022-12-31T14:52:50;8.80;;;1.77;;
41925;SDS011;27615;51.826;5.692;2022-12-31T14:55:34;6.03;;;1.17;;
41925;SDS011;27615;51.826;5.692;2022-12-31T14:58:02;5.68;;;1.50;;
41925;SDS011;27615;51.826;5.692;2022-12-31T15:05:52;7.13;;;1.90;;
41925;SDS011;27615;51.826;5.692;2022-12-31T15:08:32;8.82;;;1.48;;
41925;SDS011;27615;51.826;5.692;2022-12-31T15:11:21;7.40;;;1.60;;
41925;SDS011;27615;51.826;5.692;2022-12-31T15:19:13;8.77;;;1.73;;
41925;SDS011;27615;51.826;5.692;2022-12-31T15:22:19;5.88;;;2.05;;
41925;SDS011;27615;51.826;5.692;2022-12-31T15:25:18;8.02;;;1.77;;
41925;SDS011;27615;51.826;5.692;2022-12-31T15:27:46;6.65;;;1.60;;
41925;SDS011;27615;51.826;5.692;2022-12-31T15:33:00;12.70;;;1.92;;
41925;SDS011;27615;51.826;5.692;2022-12-31T15:35:29;6.22;;;1.52;;
41925;SDS011;27615;51.826;5.692;2022-12-31T15:40:44;7.20;;;1.95;;
41925;SDS011;27615;51.826;5.692;2022-12-31T15:45:57;8.77;;;2.55;;
41925;SDS011;27615;51.826;5.692;2022-12-31T15:48:31;5.25;;;1.48;;
41925;SDS011;27615;51.826;5.692;2022-12-31T15:51:07;6.13;;;1.50;;
41925;SDS011;27615;51.826;5.692;2022-12-31T15:53:42;5.22;;;1.50;;
41925;SDS011;27615;51.826;5.692;2022-12-31T15:56:17;3.63;;;1.17;;
41925;SDS011;27615;51.826;5.692;2022-12-31T15:59:04;6.13;;;1.60;;
41925;SDS011;27615;51.826;5.692;2022-12-31T16:01:35;4.22;;;1.52;;
41925;SDS011;27615;51.826;5.692;2022-12-31T16:04:04;5.20;;;1.23;;
41925;SDS011;27615;51.826;5.692;2022-12-31T16:06:38;6.45;;;1.40;;
41925;SDS011;27615;51.826;5.692;2022-12-31T16:09:07;12.18;;;2.50;;
41925;SDS011;27615;51.826;5.692;2022-12-31T16:11:41;4.43;;;1.55;;
41925;SDS011;27615;51.826;5.692;2022-12-31T16:14:10;5.60;;;2.15;;
41925;SDS011;27615;51.826;5.692;2022-12-31T16:16:49;10.15;;;2.28;;
41925;SDS011;27615;51.826;5.692;2022-12-31T16:19:23;4.75;;;1.50;;
41925;SDS011;27615;51.826;5.692;2022-12-31T16:22:07;4.57;;;1.25;;
41925;SDS011;27615;51.826;5.692;2022-12-31T16:24:40;6.03;;;1.90;;
41925;SDS011;27615;51.826;5.692;2022-12-31T16:27:08;9.40;;;2.42;;
41925;SDS011;27615;51.826;5.692;2022-12-31T16:29:40;6.88;;;1.55;;
41925;SDS011;27615;51.826;5.692;2022-12-31T16:32:15;6.43;;;1.42;;
41925;SDS011;27615;51.826;5.692;2022-12-31T16:34:41;6.07;;;1.40;;
41925;SDS011;27615;51.826;5.692;2022-12-31T16:37:15;4.82;;;1.60;;
41925;SDS011;27615;51.826;5.692;2022-12-31T16:42:24;4.60;;;1.40;;
41925;SDS011;27615;51.826;5.692;2022-12-31T16:44:52;5.82;;;1.30;;
41925;SDS011;27615;51.826;5.692;2022-12-31T16:47:23;5.68;;;1.92;;
41925;SDS011;27615;51.826;5.692;2022-12-31T16:49:59;6.40;;;1.83;;
41925;SDS011;27615;51.826;5.692;2022-12-31T16:52:32;4.95;;;1.70;;
41925;SDS011;27615;51.826;5.692;2022-12-31T16:55:05;3.67;;;1.35;;
41925;SDS011;27615;51.826;5.692;2022-12-31T16:57:32;3.13;;;1.20;;
41925;SDS011;27615;51.826;5.692;2022-12-31T17:00:13;7.15;;;2.15;;
41925;SDS011;27615;51.826;5.692;2022-12-31T17:02:40;6.68;;;1.50;;
41925;SDS011;27615;51.826;5.692;2022-12-31T17:05:21;5.93;;;1.77;;
41925;SDS011;27615;51.826;5.692;2022-12-31T17:07:48;5.15;;;1.98;;
41925;SDS011;27615;51.826;5.692;2022-12-31T17:10:18;6.82;;;1.90;;
41925;SDS011;27615;51.826;5.692;2022-12-31T17:12:57;6.30;;;1.73;;
41925;SDS011;27615;51.826;5.692;2022-12-31T17:15:24;5.20;;;1.65;;
41925;SDS011;27615;51.826;5.692;2022-12-31T17:17:56;5.97;;;1.50;;
41925;SDS011;27615;51.826;5.692;2022-12-31T17:20:26;9.50;;;2.25;;
41925;SDS011;27615;51.826;5.692;2022-12-31T17:22:55;7.32;;;1.98;;
41925;SDS011;27615;51.826;5.692;2022-12-31T17:25:24;6.65;;;2.42;;
41925;SDS011;27615;51.826;5.692;2022-12-31T17:35:43;6.60;;;2.00;;
41925;SDS011;27615;51.826;5.692;2022-12-31T17:40:54;4.68;;;2.10;;
41925;SDS011;27615;51.826;5.692;2022-12-31T17:43:39;5.57;;;2.42;;
41925;SDS011;27615;51.826;5.692;2022-12-31T17:46:09;5.40;;;2.40;;
41925;SDS011;27615;51.826;5.692;2022-12-31T17:48:37;6.82;;;2.97;;
41925;SDS011;27615;51.826;5.692;2022-12-31T17:51:03;6.68;;;2.40;;
41925;SDS011;27615;51.826;5.692;2022-12-31T17:53:29;5.82;;;2.50;;
41925;SDS011;27615;51.826;5.692;2022-12-31T17:55:55;8.55;;;3.30;;
41925;SDS011;27615;51.826;5.692;2022-12-31T18:01:01;6.15;;;2.42;;
41925;SDS011;27615;51.826;5.692;2022-12-31T18:03:29;4.97;;;2.67;;
41925;SDS011;27615;51.826;5.692;2022-12-31T18:05:55;6.32;;;2.53;;
41925;SDS011;27615;51.826;5.692;2022-12-31T18:08:20;8.88;;;3.15;;
41925;SDS011;27615;51.826;5.692;2022-12-31T18:10:46;6.95;;;2.72;;
41925;SDS011;27615;51.826;5.692;2022-12-31T18:13:13;8.00;;;2.90;;
41925;SDS011;27615;51.826;5.692;2022-12-31T18:15:41;9.77;;;3.08;;
41925;SDS011;27615;51.826;5.692;2022-12-31T18:20:50;8.23;;;3.17;;
41925;SDS011;27615;51.826;5.692;2022-12-31T18:23:30;9.57;;;3.50;;
41925;SDS011;27615;51.826;5.692;2022-12-31T18:26:04;8.13;;;3.13;;
41925;SDS011;27615;51.826;5.692;2022-12-31T18:28:30;11.13;;;4.40;;
41925;SDS011;27615;51.826;5.692;2022-12-31T18:30:56;8.38;;;2.83;;
41925;SDS011;27615;51.826;5.692;2022-12-31T18:33:21;7.97;;;3.33;;
41925;SDS011;27615;51.826;5.692;2022-12-31T18:35:49;8.02;;;3.15;;
41925;SDS011;27615;51.826;5.692;2022-12-31T18:38:16;6.47;;;3.03;;
41925;SDS011;27615;51.826;5.692;2022-12-31T18:40:52;7.07;;;3.17;;
41925;SDS011;27615;51.826;5.692;2022-12-31T18:43:19;4.88;;;2.40;;
41925;SDS011;27615;51.826;5.692;2022-12-31T18:45:46;6.65;;;2.53;;
41925;SDS011;27615;51.826;5.692;2022-12-31T18:48:12;7.85;;;3.10;;
41925;SDS011;27615;51.826;5.692;2022-12-31T18:50:38;10.65;;;2.70;;
41925;SDS011;27615;51.826;5.692;2022-12-31T18:53:04;7.13;;;2.13;;
41925;SDS011;27615;51.826;5.692;2022-12-31T18:55:37;7.13;;;2.40;;
41925;SDS011;27615;51.826;5.692;2022-12-31T18:58:05;6.05;;;1.90;;
41925;SDS011;27615;51.826;5.692;2022-12-31T19:00:31;6.38;;;2.08;;
41925;SDS011;27615;51.826;5.692;2022-12-31T19:02:57;4.80;;;2.03;;
41925;SDS011;27615;51.826;5.692;2022-12-31T19:05:25;6.75;;;2.42;;
41925;SDS011;27615;51.826;5.692;2022-12-31T19:07:54;4.38;;;1.92;;
41925;SDS011;27615;51.826;5.692;2022-12-31T19:10:20;7.20;;;1.70;;
41925;SDS011;27615;51.826;5.692;2022-12-31T19:12:46;7.57;;;2.20;;
41925;SDS011;27615;51.826;5.692;2022-12-31T19:15:26;4.47;;;1.63;;
41925;SDS011;27615;51.826;5.692;2022-12-31T19:17:53;5.43;;;1.75;;
41925;SDS011;27615;51.826;5.692;2022-12-31T19:20:19;6.93;;;1.90;;
41925;SDS011;27615;51.826;5.692;2022-12-31T19:22:44;7.75;;;2.50;;
41925;SDS011;27615;51.826;5.692;2022-12-31T19:25:24;4.35;;;2.00;;
41925;SDS011;27615;51.826;5.692;2022-12-31T19:27:51;8.45;;;1.90;;
41925;SDS011;27615;51.826;5.692;2022-12-31T19:32:48;5.97;;;2.20;;
41925;SDS011;27615;51.826;5.692;2022-12-31T19:35:14;4.78;;;2.08;;
41925;SDS011;27615;51.826;5.692;2022-12-31T19:37:40;4.60;;;1.83;;
41925;SDS011;27615;51.826;5.692;2022-12-31T19:40:18;5.68;;;1.92;;
41925;SDS011;27615;51.826;5.692;2022-12-31T19:42:49;7.60;;;1.80;;
41925;SDS011;27615;51.826;5.692;2022-12-31T19:45:16;6.13;;;2.67;;
41925;SDS011;27615;51.826;5.692;2022-12-31T19:47:46;5.88;;;2.78;;
41925;SDS011;27615;51.826;5.692;2022-12-31T19:50:16;6.97;;;2.33;;
41925;SDS011;27615;51.826;5.692;2022-12-31T19:52:44;8.00;;;2.17;;
41925;SDS011;27615;51.826;5.692;2022-12-31T19:55:11;6.20;;;2.00;;
41925;SDS011;27615;51.826;5.692;2022-12-31T19:57:39;7.20;;;2.55;;
41925;SDS011;27615;51.826;5.692;2022-12-31T20:00:05;5.93;;;2.40;;
41925;SDS011;27615;51.826;5.692;2022-12-31T20:02:33;5.40;;;1.75;;
41925;SDS011;27615;51.826;5.692;2022-12-31T20:04:58;8.88;;;2.42;;
41925;SDS011;27615;51.826;5.692;2022-12-31T20:07:24;6.43;;;2.40;;
41925;SDS011;27615;51.826;5.692;2022-12-31T20:09:49;6.10;;;2.55;;
41925;SDS011;27615;51.826;5.692;2022-12-31T20:12:15;7.38;;;2.20;;
41925;SDS011;27615;51.826;5.692;2022-12-31T20:14:41;7.80;;;2.67;;
41925;SDS011;27615;51.826;5.692;2022-12-31T20:17:06;7.65;;;2.47;;
41925;SDS011;27615;51.826;5.692;2022-12-31T20:19:32;6.30;;;1.88;;
41925;SDS011;27615;51.826;5.692;2022-12-31T20:21:58;8.45;;;2.25;;
41925;SDS011;27615;51.826;5.692;2022-12-31T20:24:24;7.80;;;2.70;;
41925;SDS011;27615;51.826;5.692;2022-12-31T20:26:49;8.77;;;2.17;;
41925;SDS011;27615;51.826;5.692;2022-12-31T20:29:15;7.88;;;2.58;;
41925;SDS011;27615;51.826;5.692;2022-12-31T20:31:41;7.22;;;2.47;;
41925;SDS011;27615;51.826;5.692;2022-12-31T20:34:07;6.15;;;2.17;;
41925;SDS011;27615;51.826;5.692;2022-12-31T20:39:02;8.18;;;2.63;;
41925;SDS011;27615;51.826;5.692;2022-12-31T20:41:29;5.60;;;2.20;;
41925;SDS011;27615;51.826;5.692;2022-12-31T20:43:56;6.40;;;2.38;;
41925;SDS011;27615;51.826;5.692;2022-12-31T20:46:23;8.88;;;2.58;;
41925;SDS011;27615;51.826;5.692;2022-12-31T20:48:51;5.97;;;2.40;;
41925;SDS011;27615;51.826;5.692;2022-12-31T20:51:18;15.88;;;3.00;;
41925;SDS011;27615;51.826;5.692;2022-12-31T20:53:45;9.82;;;2.40;;
41925;SDS011;27615;51.826;5.692;2022-12-31T20:56:12;6.70;;;2.35;;
41925;SDS011;27615;51.826;5.692;2022-12-31T20:58:37;7.63;;;2.70;;
41925;SDS011;27615;51.826;5.692;2022-12-31T21:01:07;5.93;;;2.08;;
41925;SDS011;27615;51.826;5.692;2022-12-31T21:03:34;8.68;;;2.50;;
41925;SDS011;27615;51.826;5.692;2022-12-31T21:06:01;10.57;;;2.00;;
41925;SDS011;27615;51.826;5.692;2022-12-31T21:08:26;10.13;;;2.20;;
41925;SDS011;27615;51.826;5.692;2022-12-31T21:10:52;9.43;;;2.15;;
41925;SDS011;27615;51.826;5.692;2022-12-31T21:13:17;6.85;;;1.90;;
41925;SDS011;27615;51.826;5.692;2022-12-31T21:15:47;7.75;;;2.25;;
41925;SDS011;27615;51.826;5.692;2022-12-31T21:18:13;6.72;;;2.50;;
41925;SDS011;27615;51.826;5.692;2022-12-31T21:20:38;8.10;;;2.92;;
41925;SDS011;27615;51.826;5.692;2022-12-31T21:23:04;6.97;;;1.90;;
41925;SDS011;27615;51.826;5.692;2022-12-31T21:25:29;7.03;;;1.90;;
41925;SDS011;27615;51.826;5.692;2022-12-31T21:27:55;7.22;;;2.20;;
41925;SDS011;27615;51.826;5.692;2022-12-31T21:30:20;6.28;;;1.98;;
41925;SDS011;27615;51.826;5.692;2022-12-31T21:32:46;7.65;;;2.45;;
41925;SDS011;27615;51.826;5.692;2022-12-31T21:35:12;5.40;;;1.65;;
41925;SDS011;27615;51.826;5.692;2022-12-31T21:37:37;9.05;;;2.67;;
41925;SDS011;27615;51.826;5.692;2022-12-31T21:40:03;8.90;;;2.55;;
41925;SDS011;27615;51.826;5.692;2022-12-31T21:42:29;6.68;;;1.67;;
41925;SDS011;27615;51.826;5.692;2022-12-31T21:44:54;6.03;;;1.77;;
41925;SDS011;27615;51.826;5.692;2022-12-31T21:47:20;7.78;;;2.13;;
41925;SDS011;27615;51.826;5.692;2022-12-31T21:50:04;8.15;;;2.15;;
41925;SDS011;27615;51.826;5.692;2022-12-31T21:52:30;8.82;;;2.20;;
41925;SDS011;27615;51.826;5.692;2022-12-31T21:55:01;9.90;;;2.13;;
41925;SDS011;27615;51.826;5.692;2022-12-31T21:57:47;7.95;;;1.83;;
41925;SDS011;27615;51.826;5.692;2022-12-31T22:00:14;8.07;;;2.60;;
41925;SDS011;27615;51.826;5.692;2022-12-31T22:02:58;7.22;;;2.05;;
41925;SDS011;27615;51.826;5.692;2022-12-31T22:05:47;7.93;;;1.90;;
41925;SDS011;27615;51.826;5.692;2022-12-31T22:08:19;7.03;;;2.50;;
41925;SDS011;27615;51.826;5.692;2022-12-31T22:10:45;6.13;;;1.92;;
41925;SDS011;27615;51.826;5.692;2022-12-31T22:13:12;7.10;;;2.25;;
41925;SDS011;27615;51.826;5.692;2022-12-31T22:15:44;8.98;;;2.38;;
41925;SDS011;27615;51.826;5.692;2022-12-31T22:18:11;7.40;;;2.22;;
41925;SDS011;27615;51.826;5.692;2022-12-31T22:20:38;7.47;;;2.28;;
41925;SDS011;27615;51.826;5.692;2022-12-31T22:23:04;7.22;;;2.25;;
41925;SDS011;27615;51.826;5.692;2022-12-31T22:25:33;11.20;;;3.13;;
41925;SDS011;27615;51.826;5.692;2022-12-31T22:28:00;10.95;;;2.33;;
41925;SDS011;27615;51.826;5.692;2022-12-31T22:30:27;5.18;;;1.98;;
41925;SDS011;27615;51.826;5.692;2022-12-31T22:32:53;4.43;;;1.67;;
41925;SDS011;27615;51.826;5.692;2022-12-31T22:35:18;9.63;;;3.00;;
41925;SDS011;27615;51.826;5.692;2022-12-31T22:37:44;7.82;;;2.15;;
41925;SDS011;27615;51.826;5.692;2022-12-31T22:40:09;11.38;;;3.28;;
41925;SDS011;27615;51.826;5.692;2022-12-31T22:42:35;8.88;;;2.35;;
41925;SDS011;27615;51.826;5.692;2022-12-31T22:45:01;8.93;;;2.08;;
41925;SDS011;27615;51.826;5.692;2022-12-31T22:47:27;7.80;;;2.17;;
41925;SDS011;27615;51.826;5.692;2022-12-31T22:49:53;12.60;;;2.70;;
41925;SDS011;27615;51.826;5.692;2022-12-31T22:52:18;6.55;;;2.38;;
41925;SDS011;27615;51.826;5.692;2022-12-31T22:54:43;8.60;;;2.08;;
41925;SDS011;27615;51.826;5.692;2022-12-31T22:57:09;7.78;;;1.60;;
41925;SDS011;27615;51.826;5.692;2022-12-31T22:59:34;5.65;;;1.67;;
41925;SDS011;27615;51.826;5.692;2022-12-31T23:02:00;5.93;;;1.92;;
41925;SDS011;27615;51.826;5.692;2022-12-31T23:04:25;9.23;;;2.20;;
41925;SDS011;27615;51.826;5.692;2022-12-31T23:06:51;8.00;;;2.17;;
41925;SDS011;27615;51.826;5.692;2022-12-31T23:09:17;6.90;;;2.30;;
41925;SDS011;27615;51.826;5.692;2022-12-31T23:12:01;8.48;;;2.70;;
41925;SDS011;27615;51.826;5.692;2022-12-31T23:14:28;9.88;;;4.50;;
41925;SDS011;27615;51.826;5.692;2022-12-31T23:17:14;13.43;;;6.65;;
41925;SDS011;27615;51.826;5.692;2022-12-31T23:19:59;16.60;;;6.97;;
41925;SDS011;27615;51.826;5.692;2022-12-31T23:22:44;10.15;;;3.80;;
41925;SDS011;27615;51.826;5.692;2022-12-31T23:25:32;10.18;;;4.80;;
41925;SDS011;27615;51.826;5.692;2022-12-31T23:28:19;12.20;;;5.55;;
41925;SDS011;27615;51.826;5.692;2022-12-31T23:30:46;12.93;;;4.00;;
41925;SDS011;27615;51.826;5.692;2022-12-31T23:33:16;9.77;;;3.78;;
41925;SDS011;27615;51.826;5.692;2022-12-31T23:35:43;11.65;;;5.45;;
41925;SDS011;27615;51.826;5.692;2022-12-31T23:38:09;11.93;;;4.40;;
41925;SDS011;27615;51.826;5.692;2022-12-31T23:40:35;10.32;;;4.82;;
41925;SDS011;27615;51.826;5.692;2022-12-31T23:43:01;10.80;;;5.00;;
41925;SDS011;27615;51.826;5.692;2022-12-31T23:45:28;10.65;;;5.13;;
41925;SDS011;27615;51.826;5.692;2022-12-31T23:47:54;10.43;;;5.63;;
41925;SDS011;27615;51.826;5.692;2022-12-31T23:50:19;13.40;;;5.55;;
41925;SDS011;27615;51.826;5.692;2022-12-31T23:52:45;14.70;;;5.72;;
41925;SDS011;27615;51.826;5.692;2022-12-31T23:55:11;10.57;;;4.95;;
41925;SDS011;27615;51.826;5.692;2022-12-31T23:57:36;10.82;;;5.45;;
